createdAt,value
2018-12-08T00:00:15.873Z,0
2018-12-08T00:00:56.449Z,0
2018-12-08T00:01:37.043Z,0
2018-12-08T00:02:17.586Z,0
2018-12-08T00:02:58.145Z,0
2018-12-08T00:03:38.700Z,0
2018-12-08T00:04:19.254Z,0
2018-12-08T00:04:59.815Z,0
2018-12-08T00:05:40.434Z,0
2018-12-08T00:06:20.980Z,0
2018-12-08T00:07:01.585Z,0
2018-12-08T00:07:42.150Z,0
2018-12-08T00:08:22.714Z,0
2018-12-08T00:09:03.264Z,0
2018-12-08T00:09:43.818Z,0
2018-12-08T00:10:24.392Z,0
2018-12-08T00:11:04.944Z,0
2018-12-08T00:11:45.500Z,0
2018-12-08T00:12:26.050Z,0
2018-12-08T00:13:06.611Z,0
2018-12-08T00:13:47.187Z,0
2018-12-08T00:14:27.758Z,0
2018-12-08T00:15:08.337Z,0
2018-12-08T00:15:48.902Z,0
2018-12-08T00:16:29.477Z,0
2018-12-08T00:17:10.025Z,0
2018-12-08T00:17:50.603Z,0
2018-12-08T00:18:31.169Z,0
2018-12-08T00:19:11.723Z,0
2018-12-08T00:19:52.291Z,0
2018-12-08T00:20:33.043Z,0
2018-12-08T00:21:13.597Z,0
2018-12-08T00:21:54.154Z,0
2018-12-08T00:22:34.711Z,0
2018-12-08T00:23:15.274Z,0
2018-12-08T00:23:55.844Z,0
2018-12-08T00:24:36.405Z,0
2018-12-08T00:25:16.974Z,0
2018-12-08T00:25:57.544Z,0
2018-12-08T00:26:38.105Z,0
2018-12-08T00:27:18.690Z,0
2018-12-08T00:27:59.246Z,0
2018-12-08T00:28:39.797Z,0
2018-12-08T00:29:20.392Z,0
2018-12-08T00:30:00.954Z,0
2018-12-08T00:30:41.518Z,0
2018-12-08T00:31:22.075Z,0
2018-12-08T00:32:02.638Z,0
2018-12-08T00:32:43.203Z,0
2018-12-08T00:33:23.773Z,0
2018-12-08T00:34:04.342Z,0
2018-12-08T00:34:44.894Z,0
2018-12-08T00:35:25.454Z,0
2018-12-08T00:36:06.037Z,0
2018-12-08T00:36:46.643Z,0
2018-12-08T00:37:27.200Z,0
2018-12-08T00:38:07.824Z,0
2018-12-08T00:38:48.326Z,0
2018-12-08T00:39:28.863Z,0
2018-12-08T00:40:09.459Z,0
2018-12-08T00:40:50.037Z,0
2018-12-08T00:41:30.605Z,0
2018-12-08T00:42:11.181Z,0
2018-12-08T00:42:51.794Z,0
2018-12-08T00:43:32.346Z,0
2018-12-08T00:44:12.909Z,0
2018-12-08T00:44:53.485Z,0
2018-12-08T00:45:34.041Z,0
2018-12-08T00:46:14.621Z,0
2018-12-08T00:46:55.167Z,0
2018-12-08T00:47:35.720Z,0
2018-12-08T00:48:16.317Z,0
2018-12-08T00:48:56.918Z,0
2018-12-08T00:49:37.496Z,0
2018-12-08T00:50:18.050Z,0
2018-12-08T00:50:58.752Z,0
2018-12-08T00:51:39.306Z,0
2018-12-08T00:52:19.860Z,0
2018-12-08T00:53:00.442Z,0
2018-12-08T00:53:41.011Z,0
2018-12-08T00:54:21.565Z,0
2018-12-08T00:55:02.147Z,0
2018-12-08T00:55:42.690Z,0
2018-12-08T00:56:23.271Z,0
2018-12-08T00:57:03.865Z,0
2018-12-08T00:57:44.422Z,0
2018-12-08T00:58:24.980Z,0
2018-12-08T00:59:05.599Z,0
2018-12-08T00:59:46.150Z,0
2018-12-08T01:00:26.716Z,0
2018-12-08T01:01:07.293Z,0
2018-12-08T01:01:47.854Z,0
2018-12-08T01:02:28.419Z,0
2018-12-08T01:03:08.981Z,0
2018-12-08T01:03:49.539Z,0
2018-12-08T01:04:30.095Z,0
2018-12-08T01:05:10.668Z,0
2018-12-08T01:05:51.231Z,0
2018-12-08T01:06:31.780Z,0
2018-12-08T01:07:12.343Z,0
2018-12-08T01:07:52.911Z,0
2018-12-08T01:08:33.490Z,0
2018-12-08T01:09:14.066Z,0
2018-12-08T01:09:54.657Z,0
2018-12-08T01:10:35.239Z,0
2018-12-08T01:11:15.791Z,0
2018-12-08T01:11:56.349Z,0
2018-12-08T01:12:36.936Z,0
2018-12-08T01:13:17.511Z,0
2018-12-08T01:13:58.077Z,0
2018-12-08T01:14:38.621Z,0
2018-12-08T01:15:19.202Z,0
2018-12-08T01:15:59.734Z,0
2018-12-08T01:16:40.287Z,0
2018-12-08T01:17:20.849Z,0
2018-12-08T01:18:01.446Z,0
2018-12-08T01:18:42.017Z,0
2018-12-08T01:19:22.565Z,0
2018-12-08T01:20:03.195Z,0
2018-12-08T01:20:43.763Z,0
2018-12-08T01:21:24.320Z,0
2018-12-08T01:22:04.882Z,0
2018-12-08T01:22:45.435Z,0
2018-12-08T01:23:25.996Z,0
2018-12-08T01:24:06.547Z,0
2018-12-08T01:24:47.113Z,0
2018-12-08T01:25:27.689Z,0
2018-12-08T01:26:08.248Z,0
2018-12-08T01:26:48.810Z,0
2018-12-08T01:27:29.398Z,0
2018-12-08T01:28:09.947Z,0
2018-12-08T01:28:50.500Z,0
2018-12-08T01:29:31.045Z,0
2018-12-08T01:30:11.688Z,0
2018-12-08T01:30:52.246Z,0
2018-12-08T01:31:32.879Z,0
2018-12-08T01:32:13.479Z,0
2018-12-08T01:32:54.532Z,0
2018-12-08T01:33:34.699Z,0
2018-12-08T01:34:15.285Z,0
2018-12-08T01:34:55.847Z,0
2018-12-08T01:35:36.583Z,0
2018-12-08T01:36:17.182Z,0
2018-12-08T01:36:57.815Z,0
2018-12-08T01:37:38.370Z,0
2018-12-08T01:38:18.912Z,0
2018-12-08T01:38:59.474Z,0
2018-12-08T01:39:40.046Z,0
2018-12-08T01:40:20.607Z,0
2018-12-08T01:41:01.148Z,0
2018-12-08T01:41:41.717Z,0
2018-12-08T01:42:22.290Z,0
2018-12-08T01:43:02.906Z,0
2018-12-08T01:43:43.460Z,0
2018-12-08T01:44:24.036Z,0
2018-12-08T01:45:04.621Z,0
2018-12-08T01:45:45.216Z,0
2018-12-08T01:46:25.792Z,0
2018-12-08T01:47:06.379Z,0
2018-12-08T01:47:46.936Z,0
2018-12-08T01:48:27.523Z,0
2018-12-08T01:49:08.060Z,0
2018-12-08T01:49:48.643Z,0
2018-12-08T01:50:29.236Z,0
2018-12-08T01:51:09.791Z,0
2018-12-08T01:51:50.369Z,0
2018-12-08T01:52:30.965Z,0
2018-12-08T01:53:11.529Z,0
2018-12-08T01:53:52.086Z,0
2018-12-08T01:54:32.644Z,0
2018-12-08T01:55:13.253Z,0
2018-12-08T01:55:53.825Z,0
2018-12-08T01:56:34.392Z,0
2018-12-08T01:57:14.950Z,0
2018-12-08T01:57:55.520Z,0
2018-12-08T01:58:36.095Z,0
2018-12-08T01:59:16.729Z,0
2018-12-08T01:59:57.295Z,0
2018-12-08T02:00:37.827Z,0
2018-12-08T02:01:18.410Z,0
2018-12-08T02:01:58.981Z,0
2018-12-08T02:02:39.552Z,0
2018-12-08T02:03:20.117Z,0
2018-12-08T02:04:00.673Z,0
2018-12-08T02:04:41.244Z,0
2018-12-08T02:05:21.823Z,0
2018-12-08T02:06:02.396Z,0
2018-12-08T02:06:42.965Z,0
2018-12-08T02:07:23.566Z,0
2018-12-08T02:08:04.110Z,0
2018-12-08T02:08:44.697Z,0
2018-12-08T02:09:25.284Z,0
2018-12-08T02:10:06.010Z,0
2018-12-08T02:10:46.628Z,0
2018-12-08T02:11:27.172Z,0
2018-12-08T02:12:07.746Z,0
2018-12-08T02:12:48.342Z,0
2018-12-08T02:13:28.941Z,0
2018-12-08T02:14:09.540Z,0
2018-12-08T02:14:50.129Z,0
2018-12-08T02:15:30.725Z,0
2018-12-08T02:16:11.295Z,0
2018-12-08T02:16:51.847Z,0
2018-12-08T02:17:32.417Z,0
2018-12-08T02:18:12.996Z,0
2018-12-08T02:18:53.567Z,0
2018-12-08T02:19:34.133Z,0
2018-12-08T02:20:14.684Z,0
2018-12-08T02:20:55.248Z,0
2018-12-08T02:21:35.863Z,0
2018-12-08T02:22:16.443Z,0
2018-12-08T02:22:56.991Z,0
2018-12-08T02:23:37.550Z,0
2018-12-08T02:24:18.111Z,0
2018-12-08T02:24:58.704Z,0
2018-12-08T02:25:39.277Z,0
2018-12-08T02:26:19.836Z,0
2018-12-08T02:27:00.422Z,0
2018-12-08T02:27:40.975Z,0
2018-12-08T02:28:21.561Z,0
2018-12-08T02:29:02.119Z,0
2018-12-08T02:29:42.683Z,0
2018-12-08T02:30:23.261Z,0
2018-12-08T02:31:03.835Z,0
2018-12-08T02:31:44.386Z,0
2018-12-08T02:32:24.961Z,0
2018-12-08T02:33:05.519Z,0
2018-12-08T02:33:46.112Z,0
2018-12-08T02:34:26.673Z,0
2018-12-08T02:35:07.232Z,0
2018-12-08T02:35:47.787Z,0
2018-12-08T02:36:28.355Z,0
2018-12-08T02:37:09.147Z,0
2018-12-08T02:37:49.703Z,0
2018-12-08T02:38:30.268Z,0
2018-12-08T02:39:10.853Z,0
2018-12-08T02:39:51.406Z,0
2018-12-08T02:40:31.990Z,0
2018-12-08T02:41:12.563Z,0
2018-12-08T02:41:53.114Z,0
2018-12-08T02:42:33.687Z,0
2018-12-08T02:43:14.250Z,0
2018-12-08T02:43:54.822Z,0
2018-12-08T02:44:35.388Z,0
2018-12-08T02:45:16.035Z,0
2018-12-08T02:45:56.592Z,0
2018-12-08T02:46:37.148Z,0
2018-12-08T02:47:17.706Z,0
2018-12-08T02:47:58.252Z,0
2018-12-08T02:48:38.818Z,0
2018-12-08T02:49:19.374Z,0
2018-12-08T02:49:59.997Z,0
2018-12-08T02:50:40.559Z,0
2018-12-08T02:51:21.110Z,0
2018-12-08T02:52:01.683Z,0
2018-12-08T02:52:42.275Z,0
2018-12-08T02:53:22.859Z,0
2018-12-08T02:54:03.388Z,0
2018-12-08T02:54:43.922Z,0
2018-12-08T02:55:24.536Z,0
2018-12-08T02:56:05.088Z,0
2018-12-08T02:56:45.660Z,0
2018-12-08T02:57:26.222Z,0
2018-12-08T02:58:06.778Z,0
2018-12-08T02:58:47.354Z,0
2018-12-08T02:59:27.960Z,0
2018-12-08T03:00:08.565Z,0
2018-12-08T03:00:49.134Z,0
2018-12-08T03:01:29.742Z,0
2018-12-08T03:02:10.328Z,0
2018-12-08T03:02:50.893Z,0
2018-12-08T03:03:31.521Z,0
2018-12-08T03:04:12.063Z,0
2018-12-08T03:04:52.651Z,0
2018-12-08T03:05:33.193Z,0
2018-12-08T03:06:13.755Z,0
2018-12-08T03:06:54.349Z,0
2018-12-08T03:07:34.897Z,0
2018-12-08T03:08:15.452Z,0
2018-12-08T03:08:56.016Z,0
2018-12-08T03:09:36.586Z,0
2018-12-08T03:10:17.212Z,0
2018-12-08T03:10:57.790Z,0
2018-12-08T03:11:38.351Z,0
2018-12-08T03:12:18.901Z,0
2018-12-08T03:12:59.452Z,0
2018-12-08T03:13:40.012Z,0
2018-12-08T03:14:20.563Z,0
2018-12-08T03:15:01.113Z,0
2018-12-08T03:15:41.673Z,0
2018-12-08T03:16:22.270Z,0
2018-12-08T03:17:02.889Z,0
2018-12-08T03:17:43.442Z,0
2018-12-08T03:18:23.992Z,0
2018-12-08T03:19:04.557Z,0
2018-12-08T03:19:45.132Z,0
2018-12-08T03:20:25.714Z,0
2018-12-08T03:21:06.299Z,0
2018-12-08T03:21:47.013Z,0
2018-12-08T03:22:27.583Z,0
2018-12-08T03:23:08.152Z,0
2018-12-08T03:23:48.723Z,0
2018-12-08T03:24:29.291Z,0
2018-12-08T03:25:09.841Z,0
2018-12-08T03:25:50.394Z,0
2018-12-08T03:26:30.964Z,0
2018-12-08T03:27:11.525Z,0
2018-12-08T03:27:52.077Z,0
2018-12-08T03:28:32.666Z,0
2018-12-08T03:29:13.218Z,0
2018-12-08T03:29:53.784Z,0
2018-12-08T03:30:34.371Z,0
2018-12-08T03:31:14.931Z,0
2018-12-08T03:31:55.518Z,0
2018-12-08T03:32:36.075Z,0
2018-12-08T03:33:16.625Z,0
2018-12-08T03:33:57.229Z,0
2018-12-08T03:34:37.797Z,0
2018-12-08T03:35:18.377Z,0
2018-12-08T03:35:58.928Z,0
2018-12-08T03:36:39.491Z,0
2018-12-08T03:37:20.064Z,0
2018-12-08T03:38:00.602Z,0
2018-12-08T03:38:41.186Z,0
2018-12-08T03:39:21.743Z,0
2018-12-08T03:40:02.315Z,0
2018-12-08T03:40:42.886Z,4
2018-12-08T03:41:23.458Z,4
2018-12-08T03:42:04.018Z,4
2018-12-08T03:42:44.579Z,4
2018-12-08T03:43:25.135Z,4
2018-12-08T03:44:05.726Z,4
2018-12-08T03:44:46.342Z,4
2018-12-08T03:45:26.860Z,4
2018-12-08T03:46:07.398Z,4
2018-12-08T03:46:47.992Z,4
2018-12-08T03:47:28.574Z,4
2018-12-08T03:48:09.124Z,4
2018-12-08T03:48:49.686Z,4
2018-12-08T03:49:30.255Z,4
2018-12-08T03:50:10.815Z,4
2018-12-08T03:50:51.372Z,4
2018-12-08T03:51:31.940Z,4
2018-12-08T03:52:12.515Z,4
2018-12-08T03:52:53.100Z,4
2018-12-08T03:53:33.688Z,4
2018-12-08T03:54:14.233Z,4
2018-12-08T03:54:54.786Z,4
2018-12-08T03:55:35.342Z,4
2018-12-08T03:56:15.909Z,4
2018-12-08T03:56:56.464Z,4
2018-12-08T03:57:37.022Z,4
2018-12-08T03:58:17.582Z,4
2018-12-08T03:58:58.151Z,4
2018-12-08T03:59:38.717Z,4
2018-12-08T04:00:19.300Z,4
2018-12-08T04:00:59.841Z,4
2018-12-08T04:01:40.414Z,4
2018-12-08T04:02:20.976Z,4
2018-12-08T04:03:01.528Z,4
2018-12-08T04:03:42.089Z,4
2018-12-08T04:04:22.694Z,4
2018-12-08T04:05:03.312Z,4
2018-12-08T04:05:43.823Z,4
2018-12-08T04:06:24.417Z,4
2018-12-08T04:07:04.999Z,4
2018-12-08T04:07:45.547Z,4
2018-12-08T04:08:26.111Z,4
2018-12-08T04:09:06.679Z,4
2018-12-08T04:09:47.230Z,4
2018-12-08T04:10:27.788Z,4
2018-12-08T04:11:08.333Z,4
2018-12-08T04:11:48.913Z,4
2018-12-08T04:12:29.542Z,4
2018-12-08T04:13:10.099Z,4
2018-12-08T04:13:50.662Z,4
2018-12-08T04:14:31.220Z,4
2018-12-08T04:15:11.778Z,4
2018-12-08T04:15:52.330Z,4
2018-12-08T04:16:32.933Z,4
2018-12-08T04:17:13.511Z,4
2018-12-08T04:17:54.098Z,4
2018-12-08T04:18:34.754Z,4
2018-12-08T04:19:15.314Z,4
2018-12-08T04:19:55.853Z,4
2018-12-08T04:20:36.429Z,4
2018-12-08T04:21:16.995Z,4
2018-12-08T04:21:57.548Z,0
2018-12-08T04:22:38.113Z,0
2018-12-08T04:23:18.686Z,0
2018-12-08T04:23:59.233Z,0
2018-12-08T04:24:39.794Z,0
2018-12-08T04:25:20.387Z,0
2018-12-08T04:26:00.946Z,4
2018-12-08T04:26:41.521Z,4
2018-12-08T04:27:22.080Z,0
2018-12-08T04:28:02.638Z,4
2018-12-08T04:28:43.238Z,4
2018-12-08T04:29:23.806Z,0
2018-12-08T04:30:04.363Z,0
2018-12-08T04:30:44.949Z,4
2018-12-08T04:31:25.516Z,4
2018-12-08T04:32:06.093Z,4
2018-12-08T04:32:46.666Z,4
2018-12-08T04:33:27.224Z,4
2018-12-08T04:34:07.779Z,4
2018-12-08T04:34:48.348Z,4
2018-12-08T04:35:28.896Z,4
2018-12-08T04:36:09.515Z,0
2018-12-08T04:36:50.077Z,4
2018-12-08T04:37:30.907Z,4
2018-12-08T04:38:11.455Z,4
2018-12-08T04:38:52.011Z,4
2018-12-08T04:39:32.581Z,4
2018-12-08T04:40:13.150Z,4
2018-12-08T04:40:53.802Z,4
2018-12-08T04:41:34.328Z,4
2018-12-08T04:42:14.964Z,4
2018-12-08T04:42:55.630Z,4
2018-12-08T04:43:36.179Z,4
2018-12-08T04:44:16.749Z,4
2018-12-08T04:44:57.321Z,4
2018-12-08T04:45:37.870Z,4
2018-12-08T04:46:18.491Z,4
2018-12-08T04:46:59.137Z,4
2018-12-08T04:47:39.600Z,4
2018-12-08T04:48:20.196Z,4
2018-12-08T04:49:00.750Z,0
2018-12-08T04:49:41.294Z,0
2018-12-08T04:50:21.847Z,0
2018-12-08T04:51:02.400Z,4
2018-12-08T04:51:42.964Z,0
2018-12-08T04:52:23.508Z,0
2018-12-08T04:53:04.071Z,4
2018-12-08T04:53:44.614Z,0
2018-12-08T04:54:25.259Z,0
2018-12-08T04:55:05.834Z,0
2018-12-08T04:55:46.390Z,0
2018-12-08T04:56:26.969Z,0
2018-12-08T04:57:07.541Z,0
2018-12-08T04:57:48.122Z,0
2018-12-08T04:58:28.713Z,0
2018-12-08T04:59:09.297Z,0
2018-12-08T04:59:49.955Z,0
2018-12-08T05:00:30.580Z,0
2018-12-08T05:01:11.182Z,0
2018-12-08T05:01:51.742Z,4
2018-12-08T05:02:32.308Z,0
2018-12-08T05:03:12.891Z,0
2018-12-08T05:03:53.430Z,0
2018-12-08T05:04:34.007Z,0
2018-12-08T05:05:14.567Z,0
2018-12-08T05:05:55.209Z,4
2018-12-08T05:06:35.778Z,4
2018-12-08T05:07:16.377Z,4
2018-12-08T05:07:56.933Z,4
2018-12-08T05:08:37.482Z,4
2018-12-08T05:09:18.030Z,4
2018-12-08T05:09:58.604Z,4
2018-12-08T05:10:39.163Z,4
2018-12-08T05:11:19.720Z,4
2018-12-08T05:12:00.281Z,0
2018-12-08T05:12:40.816Z,4
2018-12-08T05:13:21.378Z,4
2018-12-08T05:14:01.939Z,4
2018-12-08T05:14:42.485Z,4
2018-12-08T05:15:23.039Z,0
2018-12-08T05:16:03.612Z,4
2018-12-08T05:16:44.167Z,4
2018-12-08T05:17:24.752Z,4
2018-12-08T05:18:05.307Z,4
2018-12-08T05:18:45.951Z,4
2018-12-08T05:19:26.541Z,4
2018-12-08T05:20:07.104Z,4
2018-12-08T05:20:47.659Z,4
2018-12-08T05:21:28.229Z,4
2018-12-08T05:22:08.794Z,4
2018-12-08T05:22:49.366Z,4
2018-12-08T05:23:29.939Z,4
2018-12-08T05:24:10.497Z,4
2018-12-08T05:24:51.066Z,4
2018-12-08T05:25:31.603Z,4
2018-12-08T05:26:12.192Z,4
2018-12-08T05:26:52.739Z,4
2018-12-08T05:27:33.312Z,4
2018-12-08T05:28:13.907Z,4
2018-12-08T05:28:54.473Z,4
2018-12-08T05:29:35.013Z,4
2018-12-08T05:30:15.605Z,4
2018-12-08T05:30:56.143Z,4
2018-12-08T05:31:36.707Z,4
2018-12-08T05:32:17.415Z,4
2018-12-08T05:32:58.002Z,4
2018-12-08T05:33:38.583Z,4
2018-12-08T05:34:19.170Z,4
2018-12-08T05:34:59.709Z,4
2018-12-08T05:35:40.468Z,4
2018-12-08T05:36:21.056Z,4
2018-12-08T05:37:01.614Z,4
2018-12-08T05:37:42.203Z,4
2018-12-08T05:38:22.788Z,4
2018-12-08T05:39:03.335Z,4
2018-12-08T05:39:43.886Z,4
2018-12-08T05:40:24.598Z,4
2018-12-08T05:41:05.254Z,4
2018-12-08T05:41:45.821Z,4
2018-12-08T05:42:26.386Z,4
2018-12-08T05:43:06.988Z,4
2018-12-08T05:43:47.580Z,0
2018-12-08T05:44:28.210Z,4
2018-12-08T05:45:08.760Z,4
2018-12-08T05:45:49.321Z,4
2018-12-08T05:46:29.881Z,4
2018-12-08T05:47:10.470Z,4
2018-12-08T05:47:51.078Z,4
2018-12-08T05:48:31.640Z,4
2018-12-08T05:49:12.206Z,4
2018-12-08T05:49:52.779Z,4
2018-12-08T05:50:33.332Z,4
2018-12-08T05:51:13.879Z,4
2018-12-08T05:51:54.443Z,4
2018-12-08T05:52:35.005Z,4
2018-12-08T05:53:15.562Z,4
2018-12-08T05:53:56.109Z,4
2018-12-08T05:54:36.669Z,4
2018-12-08T05:55:17.217Z,4
2018-12-08T05:55:57.899Z,4
2018-12-08T05:56:38.381Z,4
2018-12-08T05:57:18.948Z,4
2018-12-08T05:57:59.509Z,4
2018-12-08T05:58:40.076Z,4
2018-12-08T05:59:20.619Z,4
2018-12-08T06:00:01.357Z,4
2018-12-08T06:00:41.797Z,4
2018-12-08T06:01:22.356Z,4
2018-12-08T06:02:02.916Z,4
2018-12-08T06:02:43.464Z,4
2018-12-08T06:03:24.031Z,4
2018-12-08T06:06:43.105Z,4
2018-12-08T06:07:23.649Z,4
2018-12-08T06:08:04.206Z,4
2018-12-08T06:08:44.754Z,4
2018-12-08T06:09:25.314Z,4
2018-12-08T06:10:05.885Z,4
2018-12-08T06:10:46.441Z,4
2018-12-08T06:11:26.999Z,4
2018-12-08T06:12:07.572Z,4
2018-12-08T06:12:48.129Z,4
2018-12-08T06:13:28.694Z,4
2018-12-08T06:14:09.267Z,4
2018-12-08T06:14:49.810Z,4
2018-12-08T06:15:30.493Z,4
2018-12-08T06:16:10.960Z,4
2018-12-08T06:16:51.530Z,4
2018-12-08T06:17:32.086Z,4
2018-12-08T06:18:12.677Z,4
2018-12-08T06:18:53.267Z,4
2018-12-08T06:19:33.836Z,4
2018-12-08T06:20:14.387Z,4
2018-12-08T06:20:54.987Z,4
2018-12-08T06:21:35.553Z,4
2018-12-08T06:22:16.126Z,4
2018-12-08T06:22:56.688Z,4
2018-12-08T06:23:37.272Z,4
2018-12-08T06:24:17.874Z,4
2018-12-08T06:24:58.425Z,4
2018-12-08T06:25:39.013Z,4
2018-12-08T06:26:19.634Z,0
2018-12-08T06:27:00.131Z,0
2018-12-08T06:27:40.684Z,4
2018-12-08T06:28:21.242Z,4
2018-12-08T06:29:01.821Z,8
2018-12-08T06:29:42.447Z,4
2018-12-08T06:30:23.042Z,4
2018-12-08T06:31:03.715Z,8
2018-12-08T06:31:44.298Z,4
2018-12-08T06:32:24.924Z,8
2018-12-08T06:33:05.528Z,8
2018-12-08T06:33:46.088Z,8
2018-12-08T06:34:26.635Z,8
2018-12-08T06:35:07.200Z,12
2018-12-08T06:35:47.789Z,12
2018-12-08T06:36:28.353Z,12
2018-12-08T06:37:08.924Z,12
2018-12-08T06:37:49.730Z,12
2018-12-08T06:38:30.302Z,16
2018-12-08T06:39:10.902Z,20
2018-12-08T06:39:51.425Z,20
2018-12-08T06:40:31.965Z,24
2018-12-08T06:41:12.520Z,24
2018-12-08T06:41:53.080Z,28
2018-12-08T06:42:33.651Z,28
2018-12-08T06:43:14.210Z,32
2018-12-08T06:43:54.812Z,32
2018-12-08T06:44:35.383Z,40
2018-12-08T06:45:15.935Z,40
2018-12-08T06:45:56.535Z,44
2018-12-08T06:46:37.099Z,44
2018-12-08T06:47:17.663Z,48
2018-12-08T06:47:58.220Z,56
2018-12-08T06:48:38.776Z,60
2018-12-08T06:49:19.335Z,60
2018-12-08T06:49:59.882Z,56
2018-12-08T06:50:40.426Z,56
2018-12-08T06:51:20.995Z,60
2018-12-08T06:52:01.552Z,64
2018-12-08T06:52:42.105Z,68
2018-12-08T06:53:22.763Z,68
2018-12-08T06:54:03.322Z,80
2018-12-08T06:54:43.934Z,96
2018-12-08T06:55:24.486Z,104
2018-12-08T06:56:05.030Z,116
2018-12-08T06:56:45.578Z,124
2018-12-08T06:57:26.273Z,124
2018-12-08T06:58:06.854Z,124
2018-12-08T06:58:47.501Z,136
2018-12-08T06:59:28.091Z,148
2018-12-08T07:00:08.720Z,160
2018-12-08T07:00:49.568Z,172
2018-12-08T07:01:30.143Z,184
2018-12-08T07:02:10.701Z,192
2018-12-08T07:02:51.258Z,204
2018-12-08T07:03:31.909Z,212
2018-12-08T07:04:12.461Z,220
2018-12-08T07:04:53.261Z,228
2018-12-08T07:05:34.596Z,240
2018-12-08T07:06:15.565Z,252
2018-12-08T07:06:56.248Z,264
2018-12-08T07:07:36.982Z,272
2018-12-08T07:08:17.633Z,280
2018-12-08T07:08:59.169Z,292
2018-12-08T07:09:39.907Z,296
2018-12-08T07:10:20.591Z,304
2018-12-08T07:11:01.414Z,316
2018-12-08T07:11:42.042Z,300
2018-12-08T07:12:22.792Z,248
2018-12-08T07:13:03.399Z,212
2018-12-08T07:13:44.111Z,208
2018-12-08T07:14:24.839Z,200
2018-12-08T07:15:05.413Z,200
2018-12-08T07:15:46.165Z,212
2018-12-08T07:16:26.977Z,220
2018-12-08T07:17:07.526Z,216
2018-12-08T07:17:48.283Z,192
2018-12-08T07:18:28.730Z,184
2018-12-08T07:19:09.437Z,192
2018-12-08T07:19:49.997Z,216
2018-12-08T07:20:30.563Z,264
2018-12-08T07:21:11.117Z,344
2018-12-08T07:21:51.754Z,432
2018-12-08T07:22:32.353Z,516
2018-12-08T07:23:12.925Z,584
2018-12-08T07:23:53.772Z,628
2018-12-08T07:24:34.563Z,672
2018-12-08T07:25:15.344Z,712
2018-12-08T07:25:55.903Z,772
2018-12-08T07:26:36.469Z,844
2018-12-08T07:27:17.085Z,920
2018-12-08T07:27:57.859Z,996
2018-12-08T07:28:38.421Z,1068
2018-12-08T07:29:19.842Z,1156
2018-12-08T07:30:00.399Z,1248
2018-12-08T07:30:40.993Z,1336
2018-12-08T07:31:21.588Z,1400
2018-12-08T07:32:03.094Z,1440
2018-12-08T07:32:43.743Z,1448
2018-12-08T07:33:25.145Z,1424
2018-12-08T07:34:05.811Z,1372
2018-12-08T07:34:46.399Z,1296
2018-12-08T07:35:27.022Z,1216
2018-12-08T07:36:07.570Z,1132
2018-12-08T07:36:48.259Z,1064
2018-12-08T07:37:28.829Z,1000
2018-12-08T07:38:09.424Z,952
2018-12-08T07:38:50.020Z,932
2018-12-08T07:39:30.859Z,928
2018-12-08T07:40:11.709Z,928
2018-12-08T07:40:52.317Z,924
2018-12-08T07:41:33.078Z,912
2018-12-08T07:42:13.791Z,888
2018-12-08T07:42:54.540Z,868
2018-12-08T07:43:35.447Z,856
2018-12-08T07:44:16.372Z,852
2018-12-08T07:44:57.004Z,880
2018-12-08T07:45:37.738Z,904
2018-12-08T07:46:19.002Z,868
2018-12-08T07:46:59.767Z,764
2018-12-08T07:47:40.455Z,644
2018-12-08T07:48:21.349Z,580
2018-12-08T07:49:03.188Z,608
2018-12-08T07:49:44.961Z,644
2018-12-08T07:50:25.671Z,628
2018-12-08T07:51:06.257Z,580
2018-12-08T07:51:46.861Z,564
2018-12-08T07:52:27.581Z,532
2018-12-08T07:53:08.150Z,508
2018-12-08T07:53:48.782Z,512
2018-12-08T07:54:29.400Z,520
2018-12-08T07:55:10.444Z,512
2018-12-08T07:55:51.272Z,504
2018-12-08T07:56:32.047Z,488
2018-12-08T07:57:12.603Z,480
2018-12-08T07:57:53.219Z,456
2018-12-08T07:58:34.033Z,456
2018-12-08T07:59:14.634Z,484
2018-12-08T07:59:55.259Z,520
2018-12-08T08:00:35.830Z,548
2018-12-08T08:01:16.533Z,596
2018-12-08T08:01:57.131Z,668
2018-12-08T08:02:37.773Z,736
2018-12-08T08:03:18.483Z,764
2018-12-08T08:03:59.160Z,776
2018-12-08T08:04:39.858Z,732
2018-12-08T08:05:20.806Z,712
2018-12-08T08:06:01.758Z,716
2018-12-08T08:06:42.396Z,808
2018-12-08T08:07:23.540Z,968
2018-12-08T08:08:04.231Z,1052
2018-12-08T08:08:44.967Z,1104
2018-12-08T08:09:25.905Z,1112
2018-12-08T08:10:07.505Z,1124
2018-12-08T08:10:48.077Z,1224
2018-12-08T08:11:28.825Z,1456
2018-12-08T08:12:09.475Z,1776
2018-12-08T08:12:50.213Z,2164
2018-12-08T08:13:31.032Z,2736
2018-12-08T08:14:11.816Z,3380
2018-12-08T08:14:52.698Z,3920
2018-12-08T08:15:33.632Z,4124
2018-12-08T08:16:14.298Z,4196
2018-12-08T08:16:55.259Z,4124
2018-12-08T08:17:36.051Z,3852
2018-12-08T08:18:16.971Z,3476
2018-12-08T08:18:57.536Z,3168
2018-12-08T08:19:38.393Z,2956
2018-12-08T08:20:19.010Z,2572
2018-12-08T08:21:00.911Z,2140
2018-12-08T08:21:41.792Z,1952
2018-12-08T08:22:22.732Z,1956
2018-12-08T08:23:03.514Z,1780
2018-12-08T08:23:44.220Z,1388
2018-12-08T08:24:24.985Z,984
2018-12-08T08:25:05.877Z,760
2018-12-08T08:25:46.548Z,632
2018-12-08T08:26:27.179Z,548
2018-12-08T08:27:08.063Z,488
2018-12-08T08:27:48.820Z,460
2018-12-08T08:28:29.618Z,444
2018-12-08T08:29:11.134Z,432
2018-12-08T08:29:51.688Z,444
2018-12-08T08:30:32.244Z,468
2018-12-08T08:31:13.067Z,492
2018-12-08T08:31:53.717Z,528
2018-12-08T08:32:34.429Z,584
2018-12-08T08:33:15.151Z,648
2018-12-08T08:33:55.735Z,704
2018-12-08T08:34:36.327Z,768
2018-12-08T08:35:16.910Z,844
2018-12-08T08:35:57.476Z,956
2018-12-08T08:36:38.040Z,1072
2018-12-08T08:37:18.643Z,1160
2018-12-08T08:37:59.199Z,1224
2018-12-08T08:38:39.761Z,1244
2018-12-08T08:39:20.328Z,1196
2018-12-08T08:40:00.911Z,1088
2018-12-08T08:40:41.447Z,956
2018-12-08T08:41:22.043Z,796
2018-12-08T08:42:03.192Z,648
2018-12-08T08:42:43.780Z,536
2018-12-08T08:43:24.364Z,496
2018-12-08T08:44:04.906Z,496
2018-12-08T08:44:45.471Z,504
2018-12-08T08:45:26.172Z,508
2018-12-08T08:46:06.797Z,512
2018-12-08T08:46:47.353Z,528
2018-12-08T08:47:27.900Z,548
2018-12-08T08:48:08.483Z,592
2018-12-08T08:48:49.043Z,648
2018-12-08T08:49:29.605Z,728
2018-12-08T08:50:10.253Z,816
2018-12-08T08:50:50.726Z,876
2018-12-08T08:51:31.286Z,1056
2018-12-08T08:52:11.861Z,1292
2018-12-08T08:52:52.433Z,1504
2018-12-08T08:53:32.960Z,1492
2018-12-08T08:54:13.514Z,4824
2018-12-08T08:54:54.144Z,7944
2018-12-08T08:55:34.713Z,5064
2018-12-08T08:56:15.403Z,2416
2018-12-08T08:56:56.102Z,2112
2018-12-08T08:57:36.676Z,2268
2018-12-08T08:58:17.246Z,2832
2018-12-08T08:58:57.806Z,3712
2018-12-08T08:59:38.440Z,3972
2018-12-08T09:00:19.020Z,3436
2018-12-08T09:00:59.640Z,3024
2018-12-08T09:01:40.178Z,3256
2018-12-08T09:02:20.769Z,3176
2018-12-08T09:03:01.290Z,2716
2018-12-08T09:03:41.857Z,2248
2018-12-08T09:04:22.407Z,1948
2018-12-08T09:05:02.968Z,1804
2018-12-08T09:05:43.536Z,1716
2018-12-08T09:06:24.107Z,1700
2018-12-08T09:07:04.971Z,1616
2018-12-08T09:07:45.532Z,1584
2018-12-08T09:08:26.087Z,1584
2018-12-08T09:09:06.632Z,1700
2018-12-08T09:09:47.362Z,1844
2018-12-08T09:10:28.228Z,1876
2018-12-08T09:11:08.940Z,1912
2018-12-08T09:11:49.555Z,1892
2018-12-08T09:12:30.230Z,2068
2018-12-08T09:13:10.794Z,2172
2018-12-08T09:13:51.337Z,2040
2018-12-08T09:14:31.968Z,1696
2018-12-08T09:15:12.598Z,1380
2018-12-08T09:15:53.261Z,1260
2018-12-08T09:16:34.789Z,1168
2018-12-08T09:17:15.798Z,1156
2018-12-08T09:17:56.830Z,980
2018-12-08T09:18:37.661Z,852
2018-12-08T09:19:19.199Z,900
2018-12-08T09:19:59.879Z,944
2018-12-08T09:20:40.800Z,1100
2018-12-08T09:21:23.183Z,1580
2018-12-08T09:22:03.827Z,1732
2018-12-08T09:22:44.538Z,1740
2018-12-08T09:23:25.276Z,1616
2018-12-08T09:24:06.075Z,1436
2018-12-08T09:24:46.774Z,1428
2018-12-08T09:25:27.822Z,1668
2018-12-08T09:26:08.906Z,1984
2018-12-08T09:26:50.006Z,2344
2018-12-08T09:27:30.852Z,2560
2018-12-08T09:28:11.542Z,2800
2018-12-08T09:28:52.315Z,3124
2018-12-08T09:29:33.265Z,2776
2018-12-08T09:30:14.561Z,2664
2018-12-08T09:30:55.589Z,2452
2018-12-08T09:31:36.405Z,2264
2018-12-08T09:32:17.050Z,2128
2018-12-08T09:32:57.820Z,2052
2018-12-08T09:33:38.408Z,1992
2018-12-08T09:34:19.349Z,1804
2018-12-08T09:34:59.985Z,1648
2018-12-08T09:35:40.661Z,1692
2018-12-08T09:36:21.654Z,1880
2018-12-08T09:37:02.467Z,2192
2018-12-08T09:37:43.015Z,2248
2018-12-08T09:38:23.574Z,2224
2018-12-08T09:39:04.132Z,2472
2018-12-08T09:39:44.705Z,3548
2018-12-08T09:40:25.257Z,3084
2018-12-08T09:41:05.817Z,3196
2018-12-08T09:41:46.476Z,3256
2018-12-08T09:42:26.943Z,3220
2018-12-08T09:43:07.502Z,2836
2018-12-08T09:43:48.495Z,2532
2018-12-08T09:44:29.399Z,1964
2018-12-08T09:45:10.180Z,2076
2018-12-08T09:45:50.724Z,2208
2018-12-08T09:46:31.277Z,1944